createdAt,value
2022-10-20T00:00:05.726Z,7.50
2022-10-20T00:02:53.450Z,8.40
2022-10-20T00:05:24.506Z,7.60
2022-10-20T00:07:52.340Z,6.70
2022-10-20T00:10:23.166Z,7.10
2022-10-20T00:12:50.929Z,7.40
2022-10-20T00:15:18.586Z,7.20
2022-10-20T00:17:49.623Z,7.10
2022-10-20T00:20:17.371Z,6.60
2022-10-20T00:22:48.204Z,6.60
2022-10-20T00:25:16.062Z,6.40
2022-10-20T00:27:43.918Z,6.40
2022-10-20T00:30:11.959Z,6.60
2022-10-20T00:32:39.745Z,6.40
2022-10-20T00:35:07.902Z,6.00
2022-10-20T00:37:35.631Z,6.20
2022-10-20T00:40:03.639Z,7.10
2022-10-20T00:42:34.661Z,6.40
2022-10-20T00:45:05.439Z,6.00
2022-10-20T00:47:51.784Z,6.10
2022-10-20T00:50:30.416Z,5.20
2022-10-20T00:53:02.464Z,5.80
2022-10-20T00:55:35.496Z,5.80
2022-10-20T00:58:07.091Z,5.30
2022-10-20T01:00:34.941Z,5.30
2022-10-20T01:03:08.285Z,4.80
2022-10-20T01:05:36.060Z,6.20
2022-10-20T01:08:06.950Z,5.70
2022-10-20T01:11:05.766Z,5.40
2022-10-20T01:14:13.750Z,5.70
2022-10-20T01:17:08.519Z,5.40
2022-10-20T01:20:29.645Z,6.00
2022-10-20T01:23:12.152Z,5.50
2022-10-20T01:25:52.124Z,5.30
2022-10-20T01:28:41.954Z,5.20
2022-10-20T01:31:40.846Z,5.60
2022-10-20T01:34:18.694Z,5.70
2022-10-20T01:37:07.354Z,6.20
2022-10-20T01:40:09.064Z,5.80
2022-10-20T01:42:42.878Z,6.10
2022-10-20T01:45:14.473Z,5.30
2022-10-20T01:47:45.967Z,5.80
2022-10-20T01:50:19.741Z,6.20
2022-10-20T01:52:47.973Z,5.50
2022-10-20T01:55:19.766Z,6.40
2022-10-20T01:58:17.937Z,6.40
2022-10-20T02:00:51.548Z,5.80
2022-10-20T02:06:08.923Z,5.50
2022-10-20T02:08:55.809Z,6.00
2022-10-20T02:11:57.354Z,6.10
2022-10-20T02:14:28.415Z,6.10
2022-10-20T02:17:07.276Z,5.60
2022-10-20T02:19:44.532Z,6.20
2022-10-20T02:22:16.529Z,6.30
2022-10-20T02:24:47.850Z,6.70
2022-10-20T02:27:22.624Z,6.70
2022-10-20T02:30:05.597Z,6.40
2022-10-20T02:32:42.531Z,6.90
2022-10-20T02:35:17.775Z,6.20
2022-10-20T02:37:45.391Z,6.00
2022-10-20T02:40:14.729Z,7.10
2022-10-20T02:42:46.090Z,6.30
2022-10-20T02:45:14.109Z,6.70
2022-10-20T02:47:41.933Z,6.20
2022-10-20T02:50:10.536Z,6.80
2022-10-20T02:52:38.441Z,6.50
2022-10-20T02:55:09.515Z,5.90
2022-10-20T02:57:37.403Z,6.60
2022-10-20T03:00:10.289Z,6.90
2022-10-20T03:02:38.155Z,6.60
2022-10-20T03:05:06.334Z,6.50
2022-10-20T03:07:34.308Z,7.00
2022-10-20T03:10:08.466Z,6.80
2022-10-20T03:12:38.670Z,6.60
2022-10-20T03:15:09.830Z,6.70
2022-10-20T03:17:37.862Z,6.80
2022-10-20T03:20:10.028Z,6.50
2022-10-20T03:22:37.708Z,7.20
2022-10-20T03:25:05.770Z,6.70
2022-10-20T03:27:33.679Z,6.50
2022-10-20T03:30:04.973Z,7.50
2022-10-20T03:32:33.160Z,7.50
2022-10-20T03:35:04.062Z,7.80
2022-10-20T03:37:31.932Z,6.80
2022-10-20T03:39:59.602Z,7.20
2022-10-20T03:42:27.212Z,6.90
2022-10-20T03:44:54.860Z,8.30
2022-10-20T03:47:25.462Z,6.40
2022-10-20T03:49:53.147Z,7.00
2022-10-20T03:52:20.829Z,7.50
2022-10-20T03:54:48.509Z,7.30
2022-10-20T03:57:16.258Z,6.40
2022-10-20T03:59:46.215Z,6.80
2022-10-20T04:02:38.447Z,7.70
2022-10-20T04:05:07.063Z,7.20
2022-10-20T04:07:34.739Z,6.80
2022-10-20T04:10:03.959Z,7.40
2022-10-20T04:12:33.138Z,7.10
2022-10-20T04:15:00.975Z,6.40
2022-10-20T04:17:28.739Z,7.80
2022-10-20T04:19:56.492Z,7.00
2022-10-20T04:22:24.211Z,7.10
2022-10-20T04:24:51.975Z,7.70
2022-10-20T04:27:19.681Z,7.30
2022-10-20T04:29:49.098Z,6.80
2022-10-20T04:32:19.759Z,7.30
2022-10-20T04:34:47.468Z,7.00
2022-10-20T04:37:15.125Z,7.50
2022-10-20T04:39:42.792Z,7.80
2022-10-20T04:42:10.673Z,8.60
2022-10-20T04:44:38.415Z,8.80
2022-10-20T04:47:06.157Z,8.70
2022-10-20T04:49:33.862Z,8.90
2022-10-20T04:52:01.551Z,8.60
2022-10-20T04:54:32.123Z,8.40
2022-10-20T04:57:04.153Z,8.90
2022-10-20T04:59:34.669Z,9.70
2022-10-20T05:02:05.371Z,10.30
2022-10-20T05:04:33.405Z,10.70
2022-10-20T05:07:01.143Z,10.80
2022-10-20T05:09:29.435Z,10.10
2022-10-20T05:12:00.172Z,10.70
2022-10-20T05:14:30.658Z,12.00
2022-10-20T05:16:58.409Z,11.10
2022-10-20T05:19:26.194Z,11.40
2022-10-20T05:21:54.123Z,12.40
2022-10-20T05:24:26.545Z,13.90
2022-10-20T05:26:58.044Z,13.50
2022-10-20T05:29:27.152Z,12.30
2022-10-20T05:31:54.829Z,11.40
2022-10-20T05:34:24.419Z,13.40
2022-10-20T05:36:54.991Z,12.00
2022-10-20T05:39:25.322Z,12.20
2022-10-20T05:41:53.078Z,12.30
2022-10-20T05:44:20.920Z,13.00
2022-10-20T05:46:48.673Z,12.40
2022-10-20T05:49:22.066Z,12.30
2022-10-20T05:51:49.842Z,14.30
2022-10-20T05:54:17.652Z,13.80
2022-10-20T05:56:45.331Z,13.60
2022-10-20T05:59:16.432Z,13.70
2022-10-20T06:01:50.362Z,12.80
2022-10-20T06:04:23.905Z,13.10
2022-10-20T06:06:56.069Z,13.50
2022-10-20T06:09:24.637Z,13.70
2022-10-20T06:11:55.137Z,14.10
2022-10-20T06:14:23.032Z,13.00
2022-10-20T06:16:53.033Z,13.70
2022-10-20T06:19:24.925Z,14.30
2022-10-20T06:21:54.248Z,14.90
2022-10-20T06:24:22.020Z,14.00
2022-10-20T06:26:54.479Z,14.30
2022-10-20T06:29:22.252Z,13.30
2022-10-20T06:31:57.872Z,13.80
2022-10-20T06:34:28.819Z,13.60
2022-10-20T06:36:56.509Z,14.50
2022-10-20T06:39:25.802Z,16.90
2022-10-20T06:42:11.060Z,14.20
2022-10-20T06:44:40.786Z,13.40
2022-10-20T06:47:13.294Z,14.80
2022-10-20T06:49:40.985Z,14.80
2022-10-20T06:52:08.696Z,15.40
2022-10-20T06:54:36.345Z,15.70
2022-10-20T06:57:04.681Z,14.80
2022-10-20T06:59:32.405Z,16.50
2022-10-20T07:02:06.839Z,17.00
2022-10-20T07:04:34.569Z,16.70
2022-10-20T07:07:05.290Z,15.30
2022-10-20T07:09:35.473Z,14.90
2022-10-20T07:12:03.717Z,13.50
2022-10-20T07:14:37.405Z,14.30
2022-10-20T07:19:32.783Z,12.70
2022-10-20T07:22:00.538Z,12.70
2022-10-20T07:24:32.146Z,14.00
2022-10-20T07:26:59.892Z,12.70
2022-10-20T07:29:27.666Z,13.40
2022-10-20T07:31:56.821Z,12.50
2022-10-20T07:34:29.474Z,12.80
2022-10-20T07:37:00.614Z,13.70
2022-10-20T07:39:28.474Z,13.50
2022-10-20T07:41:56.253Z,13.90
2022-10-20T07:44:24.592Z,13.60
2022-10-20T07:46:52.386Z,13.70
2022-10-20T07:49:43.612Z,12.80
2022-10-20T07:52:17.435Z,11.60
2022-10-20T07:54:48.480Z,12.80
2022-10-20T07:57:18.990Z,13.60
2022-10-20T07:59:46.674Z,13.30
2022-10-20T08:02:16.778Z,14.50
2022-10-20T08:04:48.376Z,13.40
2022-10-20T08:07:19.614Z,13.20
2022-10-20T08:09:47.483Z,14.50
2022-10-20T08:12:15.212Z,12.90
2022-10-20T08:14:47.717Z,11.90
2022-10-20T08:17:15.398Z,10.70
2022-10-20T08:19:52.806Z,11.50
2022-10-20T08:22:21.905Z,12.10
2022-10-20T08:24:49.623Z,12.30
2022-10-20T08:27:17.337Z,12.20
2022-10-20T08:29:50.904Z,12.60
2022-10-20T08:32:31.203Z,13.70
2022-10-20T08:34:58.928Z,12.00
2022-10-20T08:37:33.428Z,12.80
2022-10-20T08:40:01.312Z,14.90
2022-10-20T08:42:39.948Z,14.00
2022-10-20T08:45:17.276Z,13.80
2022-10-20T08:47:48.434Z,16.80
2022-10-20T08:50:22.811Z,16.30
2022-10-20T08:52:57.789Z,14.40
2022-10-20T08:55:30.729Z,13.50
2022-10-20T08:58:06.916Z,12.40
2022-10-20T09:00:39.635Z,11.40
2022-10-20T09:03:24.156Z,12.10
2022-10-20T09:06:13.162Z,12.50
2022-10-20T09:08:45.077Z,11.60
2022-10-20T09:11:23.181Z,11.70
2022-10-20T09:13:50.944Z,11.20
2022-10-20T09:16:42.149Z,11.90
2022-10-20T09:19:25.963Z,10.80
2022-10-20T09:22:04.703Z,11.60
2022-10-20T09:24:36.724Z,11.30
2022-10-20T09:27:35.484Z,10.90
2022-10-20T09:30:17.484Z,11.30
2022-10-20T09:32:47.804Z,11.70
2022-10-20T09:38:15.649Z,10.80
2022-10-20T09:41:16.238Z,12.10
2022-10-20T09:43:57.124Z,11.60
2022-10-20T09:46:33.632Z,11.30
2022-10-20T09:49:01.309Z,10.40
2022-10-20T09:51:31.662Z,10.20
2022-10-20T09:54:04.855Z,9.60
2022-10-20T09:59:19.663Z,8.80
2022-10-20T10:02:02.154Z,9.10
2022-10-20T10:04:35.388Z,9.30
2022-10-20T10:07:26.824Z,10.10
2022-10-20T10:10:09.176Z,9.30
2022-10-20T10:12:37.319Z,9.10
2022-10-20T10:15:36.909Z,10.60
2022-10-20T10:18:14.578Z,9.20
2022-10-20T10:20:42.352Z,9.90
2022-10-20T10:23:28.800Z,10.30
2022-10-20T10:25:59.324Z,9.80
2022-10-20T10:28:39.446Z,8.50
2022-10-20T10:31:07.096Z,7.70
2022-10-20T10:33:34.921Z,7.10
2022-10-20T10:36:08.142Z,7.00
2022-10-20T10:38:39.912Z,6.50
2022-10-20T10:41:45.907Z,6.90
2022-10-20T10:44:45.505Z,8.10
2022-10-20T10:47:40.276Z,8.60
2022-10-20T10:50:29.742Z,8.30
2022-10-20T10:53:00.131Z,10.80
2022-10-20T10:55:54.138Z,7.90
2022-10-20T10:58:51.421Z,6.90
2022-10-20T11:01:37.455Z,7.10
2022-10-20T11:04:24.051Z,8.20
2022-10-20T11:07:10.687Z,8.00
2022-10-20T11:10:05.012Z,6.90
2022-10-20T11:13:02.092Z,6.80
2022-10-20T11:15:45.158Z,6.20
2022-10-20T11:18:54.544Z,5.80
2022-10-20T11:22:00.003Z,5.60
2022-10-20T11:24:34.152Z,5.40
2022-10-20T11:27:15.730Z,5.30
2022-10-20T11:29:52.689Z,6.40
2022-10-20T11:35:15.708Z,5.40
2022-10-20T11:37:54.735Z,5.30
2022-10-20T11:40:29.017Z,5.80
2022-10-20T11:43:12.168Z,6.40
2022-10-20T11:46:03.624Z,5.60
2022-10-20T11:49:00.240Z,5.80
2022-10-20T11:51:32.467Z,4.80
2022-10-20T11:54:46.439Z,4.10
2022-10-20T11:57:47.743Z,4.20
2022-10-20T12:00:46.220Z,4.70
2022-10-20T12:03:16.895Z,4.70
2022-10-20T12:05:58.449Z,4.10
2022-10-20T12:09:07.163Z,4.30
2022-10-20T12:11:57.673Z,3.90
2022-10-20T12:14:39.114Z,3.80
2022-10-20T12:17:22.653Z,3.80
2022-10-20T12:20:12.742Z,4.30
2022-10-20T12:22:44.661Z,3.90
2022-10-20T12:25:35.521Z,3.80
2022-10-20T12:28:25.682Z,3.70
2022-10-20T12:31:04.523Z,3.50
2022-10-20T12:33:40.071Z,4.30
2022-10-20T12:36:16.689Z,4.20
2022-10-20T12:38:53.349Z,4.90
2022-10-20T12:41:41.861Z,4.10
2022-10-20T12:44:19.953Z,4.70
2022-10-20T12:47:08.577Z,4.00
2022-10-20T12:49:50.799Z,4.20
2022-10-20T12:52:34.800Z,4.50
2022-10-20T12:55:18.659Z,4.20
2022-10-20T13:00:24.288Z,4.50
2022-10-20T13:02:59.262Z,4.00
2022-10-20T13:05:43.286Z,3.80
2022-10-20T13:08:19.928Z,4.00
2022-10-20T13:10:53.819Z,4.30
2022-10-20T13:13:21.844Z,4.90
2022-10-20T13:15:55.756Z,4.80
2022-10-20T13:18:39.073Z,5.00
2022-10-20T13:21:32.023Z,4.70
2022-10-20T13:24:24.735Z,4.60
2022-10-20T13:26:59.814Z,4.60
2022-10-20T13:29:37.343Z,4.80
2022-10-20T13:32:28.461Z,5.00
2022-10-20T13:35:29.961Z,4.60
2022-10-20T13:38:05.102Z,4.80
2022-10-20T13:41:07.923Z,4.70
2022-10-20T13:43:57.462Z,5.80
2022-10-20T13:47:07.240Z,5.40
2022-10-20T13:49:57.861Z,5.30
2022-10-20T13:52:32.103Z,6.80
2022-10-20T13:55:01.732Z,5.30
2022-10-20T13:57:35.949Z,5.60
2022-10-20T14:03:20.603Z,4.70
2022-10-20T14:05:48.294Z,5.30
2022-10-20T14:08:19.921Z,5.90
2022-10-20T14:11:10.613Z,6.30
2022-10-20T14:13:38.525Z,5.60
2022-10-20T14:16:16.646Z,5.80
2022-10-20T14:18:44.313Z,5.60
2022-10-20T14:21:19.268Z,5.70
2022-10-20T14:23:51.605Z,6.40
2022-10-20T14:26:25.176Z,5.70
2022-10-20T14:31:25.830Z,5.40
2022-10-20T14:33:55.168Z,5.60
2022-10-20T14:36:29.746Z,5.90
2022-10-20T14:39:04.230Z,5.40
2022-10-20T14:41:36.349Z,5.40
2022-10-20T14:44:17.385Z,5.20
2022-10-20T14:47:01.220Z,6.00
2022-10-20T14:49:37.139Z,6.00
2022-10-20T14:52:22.106Z,6.10
2022-10-20T14:54:53.708Z,6.90
2022-10-20T14:57:36.914Z,6.70
2022-10-20T15:00:35.930Z,7.10
2022-10-20T15:03:08.893Z,6.80
2022-10-20T15:05:44.620Z,6.80
2022-10-20T15:08:30.914Z,6.90
2022-10-20T15:11:02.663Z,6.80
2022-10-20T15:13:36.453Z,8.10
2022-10-20T15:16:04.713Z,8.10
2022-10-20T15:18:36.575Z,8.20
2022-10-20T15:21:08.685Z,8.30
2022-10-20T15:23:36.328Z,7.10
2022-10-20T15:26:15.144Z,7.70
2022-10-20T15:28:48.375Z,7.50
2022-10-20T15:31:29.734Z,8.90
2022-10-20T15:34:02.203Z,9.40
2022-10-20T15:36:41.795Z,10.50
2022-10-20T15:39:14.354Z,9.70
2022-10-20T15:41:49.029Z,9.90
2022-10-20T15:44:23.473Z,8.60
2022-10-20T15:46:55.747Z,8.20
2022-10-20T15:49:28.021Z,8.10
2022-10-20T15:51:55.741Z,8.50
2022-10-20T15:54:25.355Z,8.80
2022-10-20T15:56:53.074Z,9.80
2022-10-20T15:59:20.740Z,9.40
2022-10-20T16:01:48.530Z,8.90
2022-10-20T16:04:26.253Z,9.00
2022-10-20T16:06:59.140Z,8.90
2022-10-20T16:09:34.741Z,9.10
2022-10-20T16:12:02.577Z,9.50
2022-10-20T16:14:30.529Z,8.80
2022-10-20T16:17:02.567Z,9.10
2022-10-20T16:19:31.611Z,9.10
2022-10-20T16:21:59.350Z,9.70
2022-10-20T16:24:27.195Z,8.60
2022-10-20T16:26:54.986Z,9.90
2022-10-20T16:29:22.962Z,10.00
2022-10-20T16:31:50.694Z,9.70
2022-10-20T16:34:18.358Z,10.30
2022-10-20T16:36:46.120Z,10.50
2022-10-20T16:39:16.259Z,10.90
2022-10-20T16:41:44.171Z,11.90
2022-10-20T16:44:12.884Z,11.60
2022-10-20T16:46:40.885Z,14.60
2022-10-20T16:49:08.681Z,15.80
2022-10-20T16:51:38.111Z,14.20
2022-10-20T16:54:05.907Z,12.80
2022-10-20T16:56:34.476Z,13.80
2022-10-20T16:59:02.224Z,16.50
2022-10-20T17:01:32.461Z,17.80
2022-10-20T17:04:00.313Z,16.70
2022-10-20T17:06:28.509Z,19.00
2022-10-20T17:08:59.745Z,17.50
2022-10-20T17:11:30.565Z,19.30
2022-10-20T17:13:59.710Z,19.10
2022-10-20T17:16:33.025Z,21.70
2022-10-20T17:19:02.453Z,21.60
2022-10-20T17:21:34.855Z,19.90
2022-10-20T17:24:03.697Z,18.60
2022-10-20T17:26:33.695Z,18.40
2022-10-20T17:29:02.461Z,17.00
2022-10-20T17:31:33.765Z,19.00
2022-10-20T17:34:01.562Z,20.50
2022-10-20T17:36:33.373Z,22.00
2022-10-20T17:39:10.555Z,21.60
2022-10-20T17:41:44.417Z,21.60
2022-10-20T17:44:12.396Z,17.40
2022-10-20T17:46:42.505Z,19.70
2022-10-20T17:49:10.241Z,18.30
2022-10-20T17:51:46.757Z,23.30
2022-10-20T17:54:14.452Z,26.10
2022-10-20T17:56:42.188Z,24.50
2022-10-20T18:01:42.699Z,28.50
2022-10-20T18:04:13.454Z,27.80
2022-10-20T18:06:46.591Z,29.70
2022-10-20T18:09:18.894Z,26.60
2022-10-20T18:11:51.803Z,31.40
2022-10-20T18:14:19.624Z,31.50
2022-10-20T18:16:50.573Z,32.10
2022-10-20T18:19:20.256Z,39.80
2022-10-20T18:21:51.096Z,37.00
2022-10-20T18:24:22.248Z,34.10
2022-10-20T18:26:56.359Z,32.50
2022-10-20T18:29:29.204Z,33.40
2022-10-20T18:31:56.987Z,34.40
2022-10-20T18:34:26.010Z,33.50
2022-10-20T18:36:57.799Z,31.30
2022-10-20T18:39:25.552Z,34.00
2022-10-20T18:41:57.736Z,32.80
2022-10-20T18:44:27.421Z,34.10
2022-10-20T18:46:59.827Z,31.20
2022-10-20T18:49:28.300Z,30.10
2022-10-20T18:51:56.938Z,30.90
2022-10-20T18:54:28.352Z,32.90
2022-10-20T18:56:59.660Z,31.70
2022-10-20T18:59:28.695Z,30.60
2022-10-20T19:01:59.267Z,30.10
2022-10-20T19:04:27.271Z,30.10
2022-10-20T19:06:54.945Z,30.60
2022-10-20T19:09:22.756Z,29.30
2022-10-20T19:14:26.986Z,30.10
2022-10-20T19:16:55.307Z,31.40
2022-10-20T19:19:23.646Z,30.10
2022-10-20T19:21:51.357Z,27.90
2022-10-20T19:24:24.445Z,30.90
2022-10-20T19:29:49.658Z,31.30
2022-10-20T19:32:20.852Z,30.20
2022-10-20T19:34:48.671Z,31.20
2022-10-20T19:37:18.665Z,30.30
2022-10-20T19:39:46.343Z,28.30
2022-10-20T19:42:18.682Z,30.70
2022-10-20T19:44:46.673Z,29.90
2022-10-20T19:47:14.424Z,31.40
2022-10-20T19:49:42.168Z,31.60
2022-10-20T19:52:17.515Z,29.20
2022-10-20T19:54:45.183Z,30.30
2022-10-20T19:57:12.880Z,29.50
2022-10-20T19:59:42.890Z,29.70
2022-10-20T20:02:16.560Z,31.40
2022-10-20T20:04:44.389Z,29.90
2022-10-20T20:07:12.069Z,29.60
2022-10-20T20:09:39.788Z,29.60
2022-10-20T20:12:09.949Z,30.20
2022-10-20T20:14:37.590Z,30.30
2022-10-20T20:17:07.347Z,31.80
2022-10-20T20:19:37.846Z,30.30
2022-10-20T20:22:08.914Z,30.40
2022-10-20T20:24:38.922Z,29.70
2022-10-20T20:27:06.902Z,27.80
2022-10-20T20:29:34.738Z,28.30
2022-10-20T20:32:02.518Z,26.00
2022-10-20T20:34:34.477Z,28.00
2022-10-20T20:37:04.500Z,25.70
2022-10-20T20:39:32.195Z,25.80
2022-10-20T20:42:01.792Z,25.10
2022-10-20T20:44:29.807Z,25.20
2022-10-20T20:47:01.943Z,27.80
2022-10-20T20:49:29.717Z,25.20
2022-10-20T20:51:57.426Z,24.80
2022-10-20T20:54:27.259Z,25.30
2022-10-20T20:56:59.744Z,26.90
2022-10-20T20:59:31.688Z,27.60
2022-10-20T21:01:59.343Z,25.60
2022-10-20T21:04:32.685Z,27.00
2022-10-20T21:07:02.919Z,25.80
2022-10-20T21:09:39.738Z,27.30
2022-10-20T21:12:07.594Z,27.00
2022-10-20T21:14:35.317Z,26.30
2022-10-20T21:17:03.088Z,29.20
2022-10-20T21:19:30.804Z,26.30
2022-10-20T21:21:58.568Z,26.60
2022-10-20T21:24:30.867Z,27.60
2022-10-20T21:26:59.952Z,27.80
2022-10-20T21:29:27.723Z,26.60
2022-10-20T21:31:56.418Z,28.10
2022-10-20T21:34:29.326Z,25.50
2022-10-20T21:36:56.995Z,24.70
2022-10-20T21:39:24.845Z,26.90
2022-10-20T21:41:52.589Z,25.70
2022-10-20T21:44:20.259Z,26.40
2022-10-20T21:46:53.506Z,26.00
2022-10-20T21:49:26.233Z,25.70
2022-10-20T21:52:00.324Z,26.00
2022-10-20T21:54:32.517Z,27.20
2022-10-20T21:57:02.967Z,26.40
2022-10-20T21:59:35.105Z,25.60
2022-10-20T22:02:02.874Z,27.30
2022-10-20T22:04:31.430Z,27.10
2022-10-20T22:07:03.600Z,28.10
2022-10-20T22:09:31.436Z,29.20
2022-10-20T22:12:04.369Z,29.40
2022-10-20T22:14:32.192Z,29.10
2022-10-20T22:16:59.925Z,27.60
2022-10-20T22:19:28.048Z,30.60
2022-10-20T22:21:59.996Z,32.30
2022-10-20T22:24:32.458Z,31.00
2022-10-20T22:27:00.143Z,37.20
2022-10-20T22:29:31.151Z,36.60
2022-10-20T22:31:58.775Z,29.20
2022-10-20T22:34:26.513Z,28.20
2022-10-20T22:36:54.270Z,27.00
2022-10-20T22:39:21.978Z,28.40
2022-10-20T22:41:51.944Z,26.90
2022-10-20T22:44:19.848Z,24.90
2022-10-20T22:46:47.549Z,25.10
2022-10-20T22:49:15.275Z,24.90
2022-10-20T22:51:42.946Z,25.00
2022-10-20T22:54:15.104Z,23.00
2022-10-20T22:56:42.911Z,24.20
2022-10-20T22:59:10.738Z,24.20
2022-10-20T23:01:38.649Z,22.90
2022-10-20T23:04:06.422Z,23.50
2022-10-20T23:06:34.117Z,23.70
2022-10-20T23:09:01.843Z,23.60
2022-10-20T23:11:30.553Z,25.60
2022-10-20T23:13:58.338Z,23.60
2022-10-20T23:16:26.107Z,22.50
2022-10-20T23:18:53.903Z,23.20
2022-10-20T23:21:21.793Z,24.60
2022-10-20T23:23:49.529Z,23.30
2022-10-20T23:26:17.282Z,23.40
2022-10-20T23:28:44.992Z,24.80
2022-10-20T23:31:17.005Z,23.80
2022-10-20T23:33:46.990Z,23.60
2022-10-20T23:36:17.197Z,22.60
2022-10-20T23:38:47.276Z,21.90
2022-10-20T23:41:15.000Z,22.00
2022-10-20T23:43:43.894Z,22.00
2022-10-20T23:46:13.043Z,22.20
2022-10-20T23:48:42.010Z,21.30
2022-10-20T23:51:09.682Z,18.70
2022-10-20T23:53:37.341Z,19.10
2022-10-20T23:56:05.263Z,19.50
2022-10-20T23:58:33.115Z,19.20
